Time;durP1;ratioP1;P1;durP2;ratioP2;P2;SDS_P1;SDS_P2;PMS_P1;PMS_P2;Temp;Humidity;BMP_temperature;BMP_pressure;BME280_temperature;BME280_humidity;BME280_pressure;Samples;Min_cycle;Max_cycle;Signal;HPM_P1;HPM_P2
2022/04/22 00:00:08;;;;;;;4.88;2.45;;;10.50;99.90;;;;;;5033035;28;20025;-79
2022/04/22 00:02:34;;;;;;;3.08;2.25;;;10.40;99.90;;;;;;5016714;28;20117;-79
2022/04/22 00:05:01;;;;;;;5.97;2.40;;;10.30;99.90;;;;;;5017550;28;20039;-79
2022/04/22 00:07:29;;;;;;;7.68;2.65;;;10.40;99.90;;;;;;5034012;28;20025;-79
2022/04/22 00:09:56;;;;;;;4.38;2.45;;;10.20;99.90;;;;;;5016849;28;20413;-80
2022/04/22 00:12:21;;;;;;;6.75;2.25;;;10.20;99.90;;;;;;5033991;28;20033;-80
2022/04/22 00:14:51;;;;;;;5.13;2.00;;;10.10;99.90;;;;;;5017107;28;20068;-82
2022/04/22 00:17:17;;;;;;;8.95;2.05;;;10.10;99.90;;;;;;5033791;28;20425;-80
2022/04/22 00:19:43;;;;;;;4.32;2.20;;;10.10;99.90;;;;;;5034749;28;20042;-79
2022/04/22 00:22:08;;;;;;;4.88;2.38;;;10.00;99.90;;;;;;5034747;28;20044;-80
2022/04/22 00:24:34;;;;;;;5.97;2.05;;;10.00;99.90;;;;;;5015947;28;20032;-79
2022/04/22 00:26:59;;;;;;;5.72;2.35;;;9.90;99.90;;;;;;5016983;28;20029;-81
2022/04/22 00:29:25;;;;;;;3.97;1.85;;;9.90;99.90;;;;;;5016299;28;20054;-80
2022/04/22 00:31:50;;;;;;;4.38;2.13;;;9.90;99.90;;;;;;5033050;28;20026;-79
2022/04/22 00:34:16;;;;;;;6.78;2.35;;;9.80;99.90;;;;;;5033672;28;20379;-80
2022/04/22 00:36:42;;;;;;;2.28;1.58;;;9.80;99.90;;;;;;5033878;28;20030;-81
2022/04/22 00:39:07;;;;;;;7.80;2.33;;;9.80;99.90;;;;;;5034138;28;20069;-80
2022/04/22 00:41:33;;;;;;;3.33;2.28;;;9.70;99.90;;;;;;5034177;28;20025;-79
2022/04/22 00:43:58;;;;;;;6.97;2.15;;;9.70;99.90;;;;;;5015882;28;20037;-78
2022/04/22 00:46:24;;;;;;;6.05;2.28;;;9.60;99.90;;;;;;5016324;28;20026;-79
2022/04/22 00:48:50;;;;;;;3.95;1.83;;;9.60;99.90;;;;;;5033778;28;20085;-79
2022/04/22 00:51:18;;;;;;;4.97;2.45;;;9.50;99.90;;;;;;5034109;28;20482;-80
2022/04/22 00:53:46;;;;;;;3.70;2.42;;;9.50;99.90;;;;;;5033933;28;20108;-78
2022/04/22 00:56:12;;;;;;;4.65;2.38;;;9.40;99.90;;;;;;5033217;28;20022;-80
2022/04/22 00:58:40;;;;;;;4.53;2.03;;;9.40;99.90;;;;;;5033851;28;20041;-79
2022/04/22 01:01:06;;;;;;;7.78;2.80;;;9.30;99.90;;;;;;5034329;28;20029;-80
2022/04/22 01:03:32;;;;;;;3.70;1.67;;;9.30;99.90;;;;;;5014887;28;20483;-80
2022/04/22 01:11:32;;;;;;;4.47;2.10;;;9.20;99.90;;;;;;5033892;28;20072;-79
2022/04/22 01:14:05;;;;;;;4.03;2.05;;;9.10;99.90;;;;;;5033213;28;20047;-81
2022/04/22 01:16:31;;;;;;;3.97;2.03;;;9.10;99.90;;;;;;5016315;28;20029;-80
2022/04/22 01:18:57;;;;;;;4.65;2.30;;;9.10;99.90;;;;;;5014887;28;20053;-79
2022/04/22 01:21:22;;;;;;;5.18;2.08;;;9.00;99.90;;;;;;5015856;28;20033;-79
2022/04/22 01:23:48;;;;;;;14.45;2.33;;;9.00;99.90;;;;;;5015709;28;20029;-79
2022/04/22 01:26:14;;;;;;;5.07;2.58;;;9.00;99.90;;;;;;5033306;28;20502;-81
2022/04/22 01:28:47;;;;;;;5.00;1.88;;;9.00;99.90;;;;;;5033918;28;20021;-80
2022/04/22 01:31:13;;;;;;;3.60;2.20;;;9.00;99.90;;;;;;5015765;28;20525;-80
2022/04/22 01:33:39;;;;;;;4.38;1.75;;;8.90;99.90;;;;;;5015853;28;20037;-80
2022/04/22 01:36:05;;;;;;;4.38;2.20;;;8.90;99.90;;;;;;5016016;28;20143;-80
2022/04/22 01:38:30;;;;;;;11.50;2.45;;;8.80;99.90;;;;;;5015187;28;20046;-80
2022/04/22 01:41:05;;;;;;;3.70;1.88;;;8.80;99.90;;;;;;5033629;28;20030;-81
2022/04/22 01:43:30;;;;;;;6.63;2.38;;;8.70;99.90;;;;;;5033315;28;20489;-80
2022/04/22 01:45:56;;;;;;;6.28;2.65;;;8.70;99.90;;;;;;5033480;28;20026;-81
2022/04/22 01:48:21;;;;;;;4.85;2.13;;;8.60;99.90;;;;;;5014811;28;20056;-80
2022/04/22 01:50:47;;;;;;;4.78;2.17;;;8.60;99.90;;;;;;5033596;28;20022;-81
2022/04/22 01:53:13;;;;;;;4.68;2.35;;;8.50;99.90;;;;;;5015466;28;20030;-80
2022/04/22 01:55:39;;;;;;;5.47;2.33;;;8.40;99.90;;;;;;5015582;28;20049;-80
2022/04/22 01:58:04;;;;;;;6.55;2.42;;;8.30;99.90;;;;;;5015665;28;20060;-80
2022/04/22 02:00:30;;;;;;;6.40;2.58;;;8.30;99.90;;;;;;5032818;28;20525;-80
2022/04/22 02:03:00;;;;;;;4.53;2.47;;;8.30;99.90;;;;;;5015500;28;20021;-79
2022/04/22 02:05:25;;;;;;;4.53;2.42;;;8.20;99.90;;;;;;5033535;28;20036;-79
2022/04/22 02:07:51;;;;;;;4.65;2.65;;;8.20;99.90;;;;;;5014811;28;20026;-79
2022/04/22 02:10:16;;;;;;;5.20;1.88;;;8.10;99.90;;;;;;5014649;28;20034;-80
2022/04/22 02:12:42;;;;;;;4.95;2.38;;;8.10;99.90;;;;;;5035769;28;20026;-78
2022/04/22 02:15:08;;;;;;;3.30;2.50;;;8.00;99.90;;;;;;5036122;28;20082;-78
2022/04/22 02:17:34;;;;;;;10.32;2.80;;;8.00;99.90;;;;;;5036950;28;20037;-78
2022/04/22 02:20:00;;;;;;;3.95;2.17;;;7.90;99.90;;;;;;5035173;28;20038;-79
2022/04/22 02:22:25;;;;;;;3.38;2.20;;;7.90;99.90;;;;;;5019104;28;20053;-80
2022/04/22 02:24:51;;;;;;;4.68;1.92;;;7.90;99.90;;;;;;5018174;28;20054;-79
2022/04/22 02:30:01;;;;;;;6.28;2.72;;;7.90;99.90;;;;;;5037020;28;20389;-79
2022/04/22 02:32:26;;;;;;;10.48;2.90;;;7.80;99.90;;;;;;5036578;28;20034;-80
2022/04/22 02:34:52;;;;;;;3.38;2.10;;;7.80;99.90;;;;;;5035296;28;20050;-80
2022/04/22 02:37:18;;;;;;;8.20;3.58;;;7.70;99.90;;;;;;5018878;28;20092;-79
2022/04/22 02:39:43;;;;;;;6.35;1.98;;;7.70;99.90;;;;;;5036424;28;20053;-81
2022/04/22 02:47:49;;;;;;;4.50;2.22;;;7.50;99.90;;;;;;5036012;28;20036;-79
2022/04/22 02:50:15;;;;;;;6.13;2.75;;;7.50;99.90;;;;;;5036516;28;20038;-81
2022/04/22 02:52:40;;;;;;;6.65;2.97;;;7.50;99.90;;;;;;5018722;28;20025;-79
2022/04/22 02:55:06;;;;;;;12.68;3.17;;;7.40;99.90;;;;;;5035564;28;20034;-79
2022/04/22 02:57:32;;;;;;;7.07;2.70;;;7.40;99.90;;;;;;5027630;28;20025;-79
2022/04/22 02:59:57;;;;;;;5.35;2.45;;;7.40;99.90;;;;;;5026088;28;20037;-79
2022/04/22 03:02:23;;;;;;;6.95;3.05;;;7.40;99.90;;;;;;5025941;28;20052;-79
2022/04/22 03:04:49;;;;;;;8.45;3.35;;;7.40;99.90;;;;;;5026143;28;20029;-79
2022/04/22 03:07:15;;;;;;;7.30;3.08;;;7.30;99.90;;;;;;5016386;28;20030;-80
2022/04/22 03:09:41;;;;;;;7.03;3.13;;;7.30;99.90;;;;;;5026171;28;20033;-80
2022/04/22 03:12:14;;;;;;;3.65;2.53;;;7.30;99.90;;;;;;5031482;28;20030;-79
2022/04/22 03:14:40;;;;;;;4.25;2.58;;;7.20;99.90;;;;;;5018111;28;20056;-78
2022/04/22 03:17:06;;;;;;;5.05;2.85;;;7.20;99.90;;;;;;5035348;28;20026;-79
2022/04/22 03:19:32;;;;;;;8.73;3.00;;;7.20;99.90;;;;;;5014860;28;20687;-79
2022/04/22 03:21:58;;;;;;;4.93;2.95;;;7.20;99.90;;;;;;5026987;28;20040;-79
2022/04/22 03:24:24;;;;;;;3.42;1.83;;;7.10;99.90;;;;;;5017611;28;20045;-79
2022/04/22 03:26:49;;;;;;;7.82;3.47;;;7.10;99.90;;;;;;5017068;28;20042;-81
2022/04/22 03:29:15;;;;;;;7.13;2.97;;;7.10;99.90;;;;;;5035348;28;20421;-80
2022/04/22 03:31:40;;;;;;;8.38;4.25;;;7.10;99.90;;;;;;5035880;28;20029;-80
2022/04/22 03:34:06;;;;;;;4.18;2.53;;;7.00;99.90;;;;;;5035239;28;21016;-79
2022/04/22 03:36:32;;;;;;;8.20;3.22;;;7.00;99.90;;;;;;5025846;28;20034;-79
2022/04/22 03:38:57;;;;;;;12.15;3.20;;;7.00;99.90;;;;;;5025291;28;20038;-79
2022/04/22 03:41:23;;;;;;;7.60;3.13;;;7.00;99.90;;;;;;5015605;28;20032;-80
2022/04/22 03:43:49;;;;;;;5.68;2.60;;;6.90;99.90;;;;;;5015571;28;20036;-80
2022/04/22 03:46:15;;;;;;;4.70;2.80;;;6.90;99.90;;;;;;5025550;28;20042;-78
2022/04/22 03:48:41;;;;;;;5.50;3.05;;;6.90;99.90;;;;;;5025472;28;20037;-80
2022/04/22 03:51:07;;;;;;;4.40;2.97;;;6.90;99.90;;;;;;5024832;28;20030;-79
2022/04/22 03:53:36;;;;;;;7.00;3.05;;;6.90;99.90;;;;;;5014364;28;20034;-79
2022/04/22 03:58:10;;;;;;;8.38;2.85;;;6.90;99.90;;;;;;5035235;28;20071;-77
2022/04/22 03:58:49;;;;;;;5.82;2.92;;;6.90;99.90;;;;;;5034168;28;20132;-75
2022/04/22 04:01:15;;;;;;;6.32;2.92;;;6.80;99.90;;;;;;5035312;28;20102;-75
2022/04/22 04:03:40;;;;;;;6.13;2.63;;;6.80;99.90;;;;;;5034761;28;20037;-75
2022/04/22 04:06:07;;;;;;;5.65;2.75;;;6.80;99.90;;;;;;5034667;28;20033;-75
2022/04/22 04:08:33;;;;;;;4.70;2.72;;;6.70;99.90;;;;;;5014919;28;20375;-76
2022/04/22 04:16:28;;;;;;;11.27;2.90;;;6.70;99.90;;;;;;5024668;28;20052;-74
2022/04/22 04:23:14;;;;;;;6.00;3.00;;;6.60;99.90;;;;;;5013662;28;20973;-75
2022/04/22 04:24:23;;;;;;;6.22;2.63;;;6.60;99.90;;;;;;5034011;28;20037;-76
2022/04/22 04:26:49;;;;;;;8.93;3.05;;;6.70;99.90;;;;;;5024940;28;20026;-76
2022/04/22 04:29:15;;;;;;;7.32;2.70;;;6.60;99.90;;;;;;5015022;28;20026;-77
2022/04/22 04:31:40;;;;;;;4.45;2.28;;;6.50;99.90;;;;;;5014965;28;20033;-75
2022/04/22 04:34:06;;;;;;;2.35;1.75;;;6.60;99.90;;;;;;5013403;28;20061;-76
2022/04/22 04:36:32;;;;;;;10.60;3.10;;;6.60;99.90;;;;;;5024222;28;20038;-75
2022/04/22 04:38:57;;;;;;;5.63;2.05;;;6.60;99.90;;;;;;5028823;28;20050;-76
2022/04/22 04:41:23;;;;;;;4.45;2.33;;;6.60;99.90;;;;;;5033640;28;20109;-79
2022/04/22 04:43:49;;;;;;;3.33;2.20;;;6.60;99.90;;;;;;5017140;28;20529;-75
2022/04/22 04:46:14;;;;;;;7.10;2.33;;;6.60;99.90;;;;;;5034008;28;20029;-76
2022/04/22 04:48:40;;;;;;;5.68;2.13;;;6.60;99.90;;;;;;5033845;28;20029;-75
2022/04/22 04:51:06;;;;;;;9.57;2.65;;;6.60;99.90;;;;;;5026821;28;20038;-75
2022/04/22 04:53:32;;;;;;;4.43;2.72;;;6.60;99.90;;;;;;5024526;28;20038;-75
2022/04/22 04:55:57;;;;;;;5.00;2.28;;;6.50;99.90;;;;;;5012632;28;20038;-75
2022/04/22 04:58:23;;;;;;;6.25;2.85;;;6.60;99.90;;;;;;5029596;28;20041;-77
2022/04/22 05:00:49;;;;;;;6.18;2.53;;;6.70;99.90;;;;;;5033579;28;20032;-75
2022/04/22 05:03:15;;;;;;;4.15;2.33;;;6.70;99.90;;;;;;5033749;28;20037;-76
2022/04/22 05:05:45;;;;;;;5.07;2.30;;;6.70;99.90;;;;;;5034022;28;20037;-75
2022/04/22 05:08:11;;;;;;;5.30;2.63;;;6.70;99.90;;;;;;5010673;28;20032;-76
2022/04/22 05:10:37;;;;;;;4.60;2.20;;;6.80;99.90;;;;;;5020083;28;20054;-75
2022/04/22 05:13:04;;;;;;;11.05;3.20;;;6.80;99.90;;;;;;5023917;28;20026;-75
2022/04/22 05:15:31;;;;;;;5.00;1.98;;;6.90;99.90;;;;;;5023386;28;20071;-74
2022/04/22 05:17:58;;;;;;;6.03;2.15;;;6.90;99.90;;;;;;5014097;28;20034;-75
2022/04/22 05:20:25;;;;;;;4.80;2.17;;;6.90;99.90;;;;;;5022830;28;20026;-74
2022/04/22 05:22:51;;;;;;;4.32;1.80;;;6.90;99.90;;;;;;5013297;28;20034;-74
2022/04/22 05:25:17;;;;;;;4.03;2.60;;;7.00;99.90;;;;;;5027012;28;20153;-75
2022/04/22 05:27:43;;;;;;;6.85;3.05;;;7.00;99.90;;;;;;5033241;28;20462;-76
2022/04/22 05:32:54;;;;;;;4.03;1.90;;;7.10;99.90;;;;;;5030949;28;20108;-76
2022/04/22 05:35:21;;;;;;;12.77;3.03;;;7.10;99.90;;;;;;5033451;28;20042;-77
2022/04/22 05:37:54;;;;;;;4.25;2.65;;;7.20;99.90;;;;;;5033562;28;20056;-78
2022/04/22 05:40:46;;;;;;;2.60;2.08;;;7.20;99.90;;;;;;5015446;28;20036;-76
2022/04/22 05:43:11;;;;;;;5.18;2.00;;;7.20;99.90;;;;;;5026707;28;20382;-75
2022/04/22 05:45:37;;;;;;;3.42;2.05;;;7.30;99.90;;;;;;5015294;28;20029;-77
2022/04/22 05:48:03;;;;;;;6.32;2.70;;;7.40;99.90;;;;;;5013555;28;20033;-76
2022/04/22 05:50:29;;;;;;;4.57;2.22;;;7.40;99.90;;;;;;5016741;28;20104;-75
2022/04/22 05:52:56;;;;;;;10.32;1.80;;;7.50;99.90;;;;;;5018812;28;20029;-76
2022/04/22 05:55:24;;;;;;;10.30;1.92;;;7.50;99.90;;;;;;5018809;28;20421;-74
2022/04/22 05:57:53;;;;;;;15.18;2.85;;;7.60;99.90;;;;;;5019042;28;20025;-77
2022/04/22 06:00:24;;;;;;;4.18;2.60;;;7.60;99.90;;;;;;5018623;28;20428;-76
2022/04/22 06:02:50;;;;;;;3.78;2.45;;;7.70;99.90;;;;;;5018759;28;20052;-77
2022/04/22 06:05:21;;;;;;;3.30;2.03;;;7.70;99.90;;;;;;5036911;28;20029;-79
2022/04/22 06:10:31;;;;;;;8.90;3.17;;;7.80;99.90;;;;;;5017883;28;20482;-78
2022/04/22 06:10:34;;;;;;;4.22;2.53;;;7.80;99.90;;;;;;5036883;28;20077;-77
2022/04/22 06:13:00;;;;;;;7.82;2.42;;;7.90;99.90;;;;;;5036597;28;20059;-77
2022/04/22 06:15:27;;;;;;;11.15;2.83;;;8.00;99.90;;;;;;5037132;28;20029;-77
2022/04/22 06:17:52;;;;;;;5.15;2.55;;;8.00;99.90;;;;;;5037218;28;20053;-76
2022/04/22 06:20:19;;;;;;;3.70;1.85;;;8.10;99.90;;;;;;5018100;28;20040;-77
2022/04/22 06:22:45;;;;;;;7.80;3.08;;;8.10;99.90;;;;;;5037179;28;20052;-76
2022/04/22 06:25:11;;;;;;;8.65;2.47;;;8.20;99.90;;;;;;5036496;28;20077;-77
2022/04/22 06:27:42;;;;;;;1.88;1.45;;;8.20;99.90;;;;;;5018651;28;20030;-77
2022/04/22 06:30:16;;;;;;;7.25;3.00;;;8.30;99.90;;;;;;5036972;28;20030;-76
2022/04/22 06:32:44;;;;;;;6.97;2.60;;;8.40;99.90;;;;;;5036945;28;20048;-76
2022/04/22 06:35:10;;;;;;;7.18;2.40;;;8.40;99.90;;;;;;5035726;28;20037;-76
2022/04/22 06:37:42;;;;;;;3.83;2.30;;;8.50;99.90;;;;;;5016689;28;20044;-75
2022/04/22 06:45:49;;;;;;;7.93;2.80;;;8.70;99.90;;;;;;5034898;28;20041;-75
2022/04/22 06:48:35;;;;;;;5.47;2.53;;;8.80;99.90;;;;;;5036901;28;20084;-75
2022/04/22 06:51:02;;;;;;;7.63;2.97;;;8.90;99.90;;;;;;5036036;28;20032;-74
2022/04/22 06:53:28;;;;;;;4.32;2.58;;;9.00;99.90;;;;;;5036170;28;20022;-75
2022/04/22 06:55:58;;;;;;;6.97;2.53;;;9.10;99.90;;;;;;5017104;28;20576;-78
2022/04/22 06:58:23;;;;;;;4.13;2.17;;;9.20;99.90;;;;;;5036164;28;20037;-78
2022/04/22 07:00:49;;;;;;;5.15;2.47;;;9.30;99.90;;;;;;5017330;28;20037;-77
2022/04/22 07:03:16;;;;;;;6.07;2.67;;;9.40;99.90;;;;;;5017290;28;20025;-77
2022/04/22 07:05:46;;;;;;;5.32;2.65;;;9.50;99.90;;;;;;5036231;28;20108;-77
2022/04/22 07:08:13;;;;;;;7.25;2.67;;;9.50;99.90;;;;;;5018021;28;20034;-77
2022/04/22 07:10:48;;;;;;;8.55;2.78;;;9.60;99.90;;;;;;5034004;28;20093;-77
2022/04/22 07:13:16;;;;;;;5.93;2.30;;;9.80;99.90;;;;;;5018259;28;20081;-77
2022/04/22 07:15:44;;;;;;;4.00;2.30;;;9.90;99.90;;;;;;5035499;28;20029;-77
2022/04/22 07:18:11;;;;;;;5.63;3.05;;;9.90;99.90;;;;;;5035129;28;20044;-78
2022/04/22 07:20:37;;;;;;;6.70;2.90;;;10.10;99.90;;;;;;5030365;28;20018;-76
2022/04/22 07:23:03;;;;;;;4.45;2.65;;;10.20;99.90;;;;;;5012912;28;20022;-77
2022/04/22 07:25:29;;;;;;;5.97;2.97;;;10.30;99.90;;;;;;5038454;28;20046;-77
2022/04/22 07:27:55;;;;;;;6.13;2.60;;;10.40;99.90;;;;;;5046258;28;20052;-78
2022/04/22 07:30:22;;;;;;;4.95;2.88;;;10.60;99.90;;;;;;5046179;28;20033;-77
2022/04/22 07:32:49;;;;;;;4.70;2.55;;;10.70;99.90;;;;;;5046417;28;20033;-75
2022/04/22 07:35:18;;;;;;;6.00;2.83;;;10.80;99.90;;;;;;5028534;28;20505;-76
2022/04/22 07:37:49;;;;;;;3.22;2.08;;;10.90;99.90;;;;;;5046529;28;20033;-78
2022/04/22 07:40:19;;;;;;;4.47;2.50;;;11.00;99.90;;;;;;5017082;28;20050;-78
2022/04/22 07:48:24;;;;;;;7.63;3.33;;;11.40;99.90;;;;;;5013402;28;20048;-78
2022/04/22 07:50:50;;;;;;;6.93;2.83;;;11.60;99.90;;;;;;5046454;28;20021;-78
2022/04/22 07:53:16;;;;;;;6.78;2.60;;;11.70;99.90;;;;;;5028369;28;20053;-76
2022/04/22 07:55:42;;;;;;;3.47;2.00;;;11.80;99.90;;;;;;5023817;28;20033;-77
2022/04/22 07:58:10;;;;;;;11.00;3.00;;;11.90;99.90;;;;;;5017118;28;20045;-76
2022/04/22 08:00:37;;;;;;;9.70;3.25;;;12.00;99.90;;;;;;5021842;28;20027;-76
2022/04/22 08:03:02;;;;;;;2.88;1.90;;;12.10;99.90;;;;;;4992360;28;20050;-76
2022/04/22 08:05:28;;;;;;;6.80;2.95;;;12.20;99.90;;;;;;4993995;28;20038;-77
2022/04/22 08:07:53;;;;;;;7.03;2.88;;;12.30;99.90;;;;;;5009713;28;20128;-77
2022/04/22 08:10:19;;;;;;;8.40;3.00;;;12.40;99.90;;;;;;5004479;28;20049;-77
2022/04/22 08:12:45;;;;;;;4.55;2.45;;;12.50;99.90;;;;;;5017101;28;20038;-77
2022/04/22 08:15:13;;;;;;;4.38;2.33;;;12.60;99.90;;;;;;5011455;28;20057;-77
2022/04/22 08:17:39;;;;;;;5.88;2.55;;;12.70;99.90;;;;;;5025397;28;20075;-78
2022/04/22 08:20:05;;;;;;;7.50;2.70;;;12.80;99.90;;;;;;5007842;28;20557;-78
2022/04/22 08:22:32;;;;;;;7.63;3.17;;;12.90;99.90;;;;;;5026079;28;20037;-78
2022/04/22 08:24:57;;;;;;;9.27;2.40;;;13.00;99.90;;;;;;5005697;28;20058;-76
2022/04/22 08:27:24;;;;;;;4.50;2.20;;;13.20;99.90;;;;;;5025404;28;20056;-76
2022/04/22 08:29:51;;;;;;;6.85;2.60;;;13.30;99.90;;;;;;5023820;28;20029;-77
2022/04/22 08:32:17;;;;;;;11.57;2.78;;;13.40;99.90;;;;;;5006153;28;20022;-77
2022/04/22 08:34:43;;;;;;;5.25;2.15;;;13.70;99.90;;;;;;5024838;28;20384;-78
2022/04/22 08:37:08;;;;;;;7.55;2.38;;;13.90;99.90;;;;;;5017252;28;20021;-78
2022/04/22 08:39:35;;;;;;;4.18;2.30;;;14.10;99.90;;;;;;5018385;28;20046;-77
2022/04/22 08:42:01;;;;;;;8.32;2.20;;;14.30;99.90;;;;;;4997064;28;20030;-75
2022/04/22 08:44:30;;;;;;;5.15;2.38;;;14.40;99.90;;;;;;5007726;28;20022;-78
2022/04/22 08:49:59;;;;;;;7.68;2.80;;;14.70;99.90;;;;;;5024854;28;20110;-77
2022/04/22 08:52:26;;;;;;;9.23;2.53;;;14.70;99.90;;;;;;5019441;28;20034;-79
2022/04/22 08:54:55;;;;;;;6.00;2.30;;;15.00;99.90;;;;;;5021918;28;20029;-77
2022/04/22 08:57:24;;;;;;;8.52;2.63;;;15.10;99.90;;;;;;5007508;28;20057;-74
2022/04/22 08:59:51;;;;;;;5.10;2.45;;;15.20;99.90;;;;;;5021910;28;20089;-79
2022/04/22 09:02:18;;;;;;;7.47;2.85;;;15.20;99.90;;;;;;5025394;28;20034;-77
2022/04/22 09:04:46;;;;;;;3.97;2.47;;;15.30;99.90;;;;;;5006894;28;20112;-77
2022/04/22 09:07:18;;;;;;;7.57;3.00;;;15.30;99.90;;;;;;5024703;28;20034;-79
2022/04/22 09:09:49;;;;;;;5.97;2.75;;;15.50;99.90;;;;;;5007271;28;20049;-78
2022/04/22 09:12:24;;;;;;;5.35;2.22;;;15.60;99.90;;;;;;5006878;28;20037;-77
2022/04/22 09:14:54;;;;;;;;;;;15.70;99.90;;;;;;5007811;28;20026;-76
2022/04/22 09:17:22;;;;;;;4.07;2.40;;;15.80;99.90;;;;;;5025600;28;19905;-76
2022/04/22 09:19:49;;;;;;;5.65;2.40;;;15.90;99.90;;;;;;5006060;28;20073;-78
2022/04/22 09:22:19;;;;;;;5.05;2.65;;;15.90;99.90;;;;;;5007136;28;20058;-79
2022/04/22 09:24:52;;;;;;;4.00;2.25;;;15.90;99.90;;;;;;5013451;28;20401;-78
2022/04/22 09:27:19;;;;;;;9.27;2.70;;;16.00;99.90;;;;;;5024971;28;20038;-77
2022/04/22 09:29:53;;;;;;;5.35;2.38;;;16.00;99.90;;;;;;5004980;28;20033;-77
2022/04/22 09:32:27;;;;;;;3.78;1.83;;;16.10;99.90;;;;;;5004105;28;20045;-79
2022/04/22 09:34:56;;;;;;;7.32;2.63;;;16.30;99.90;;;;;;4987796;28;20041;-76
2022/04/22 09:42:55;;;;;;;4.85;2.22;;;16.90;99.90;;;;;;5005180;28;20412;-74
2022/04/22 09:45:21;;;;;;;11.25;3.10;;;17.00;99.90;;;;;;5005151;28;20026;-75
2022/04/22 09:47:58;;;;;;;6.70;3.05;;;17.10;99.90;;;;;;5005504;28;20029;-77
2022/04/22 09:50:42;;;;;;;7.45;2.35;;;17.30;99.90;;;;;;5004920;28;20034;-77
2022/04/22 09:53:10;;;;;;;2.58;1.83;;;17.50;99.90;;;;;;5005158;28;20034;-77
2022/04/22 09:55:49;;;;;;;3.30;2.17;;;17.60;99.90;;;;;;5004901;28;20022;-75
2022/04/22 09:58:36;;;;;;;3.78;2.00;;;17.90;99.90;;;;;;5005366;28;20430;-77
2022/04/22 10:01:06;;;;;;;5.72;2.13;;;17.90;99.90;;;;;;5004760;28;20034;-77
2022/04/22 10:03:38;;;;;;;5.68;2.67;;;17.80;99.90;;;;;;5004430;28;20034;-78
2022/04/22 10:06:05;;;;;;;3.83;1.90;;;17.80;99.90;;;;;;5005166;28;20041;-75
2022/04/22 10:08:34;;;;;;;17.60;2.40;;;17.90;99.90;;;;;;5004701;28;20030;-75
2022/04/22 10:11:02;;;;;;;4.72;2.22;;;17.90;99.90;;;;;;5004545;28;20078;-78
2022/04/22 10:13:46;;;;;;;5.47;2.28;;;18.10;99.90;;;;;;5004507;28;20081;-77
2022/04/22 10:16:15;;;;;;;5.80;2.53;;;18.20;99.90;;;;;;5004553;28;20026;-78
2022/04/22 10:18:48;;;;;;;4.43;2.08;;;18.40;99.90;;;;;;4987487;28;20553;-78
2022/04/22 10:21:14;;;;;;;3.58;2.03;;;18.50;99.90;;;;;;5003233;28;20474;-79
2022/04/22 10:23:44;;;;;;;17.33;2.88;;;18.50;99.90;;;;;;5007164;28;20077;-78
2022/04/22 10:26:09;;;;;;;5.95;2.70;;;18.20;99.90;;;;;;5024245;28;20506;-77
2022/04/22 10:28:35;;;;;;;7.63;2.47;;;18.20;99.90;;;;;;5002831;28;20030;-78
2022/04/22 10:31:03;;;;;;;7.65;2.55;;;18.20;99.90;;;;;;5004386;28;20057;-79
2022/04/22 10:33:39;;;;;;;5.65;2.08;;;18.10;99.90;;;;;;5004987;28;20030;-81
2022/04/22 10:36:05;;;;;;;5.22;2.17;;;18.20;99.90;;;;;;5005567;28;20058;-76
2022/04/22 10:38:39;;;;;;;3.88;2.25;;;18.40;99.90;;;;;;5007775;28;20057;-76
2022/04/22 10:41:14;;;;;;;6.18;2.38;;;18.80;99.90;;;;;;4990706;28;20026;-77
2022/04/22 10:43:41;;;;;;;7.85;2.30;;;18.90;99.90;;;;;;5008663;28;20034;-76
2022/04/22 10:49:14;;;;;;;8.80;2.40;;;19.30;99.90;;;;;;5008490;28;20085;-78
2022/04/22 10:52:00;;;;;;;4.75;2.10;;;19.70;99.90;;;;;;4990658;28;20030;-76
2022/04/22 10:54:52;;;;;;;4.70;1.70;;;19.90;99.90;;;;;;4991571;28;20106;-77
2022/04/22 10:57:19;;;;;;;6.28;2.38;;;20.10;99.90;;;;;;5016735;28;20045;-79
2022/04/22 10:59:45;;;;;;;6.88;1.88;;;20.20;99.90;;;;;;5027527;28;20042;-75
2022/04/22 11:02:31;;;;;;;14.27;2.42;;;20.20;99.90;;;;;;5028026;28;20051;-78
2022/04/22 11:05:19;;;;;;;9.85;3.10;;;20.20;99.90;;;;;;5009960;28;20055;-78
2022/04/22 11:07:50;;;;;;;4.95;2.00;;;20.30;99.90;;;;;;5027337;28;20037;-76
2022/04/22 11:10:21;;;;;;;3.45;1.70;;;20.40;99.90;;;;;;5009940;28;20022;-78
2022/04/22 11:12:54;;;;;;;9.38;1.92;;;20.60;99.90;;;;;;5009892;28;20030;-76
2022/04/22 11:15:52;;;;;;;3.47;2.28;;;20.80;99.90;;;;;;5027495;28;20029;-77
2022/04/22 11:18:18;;;;;;;3.85;1.90;;;21.00;99.90;;;;;;4957192;28;20076;-77
2022/04/22 11:21:02;;;;;;;6.40;2.70;;;21.00;99.90;;;;;;5035747;28;20024;-77
2022/04/22 11:23:37;;;;;;;6.50;2.03;;;21.20;99.90;;;;;;5046471;28;20034;-74
2022/04/22 11:26:04;;;;;;;4.60;2.17;;;21.20;99.90;;;;;;5028113;28;20108;-73
2022/04/22 11:28:37;;;;;;;4.00;1.92;;;21.10;99.90;;;;;;5045998;28;20032;-75
2022/04/22 11:31:08;;;;;;;7.60;2.70;;;20.90;99.90;;;;;;5036654;28;20030;-75
2022/04/22 11:33:56;;;;;;;3.58;2.08;;;20.70;99.90;;;;;;5026268;28;20077;-73
2022/04/22 11:36:25;;;;;;;4.32;2.20;;;20.50;99.90;;;;;;5026512;28;20397;-74
2022/04/22 11:38:55;;;;;;;2.50;1.98;;;20.60;99.90;;;;;;5022927;28;20056;-74
2022/04/22 11:41:22;;;;;;;3.20;1.67;;;20.80;99.90;;;;;;5025676;28;20041;-74
2022/04/22 11:43:48;;;;;;;4.32;1.85;;;20.90;99.90;;;;;;5011980;28;20394;-75
2022/04/22 11:46:17;;;;;;;6.20;2.38;;;20.80;99.90;;;;;;5046399;28;20029;-76
2022/04/22 11:48:50;;;;;;;9.52;1.77;;;20.90;99.90;;;;;;5029958;28;20084;-76
2022/04/22 11:51:20;;;;;;;2.38;1.65;;;21.10;99.90;;;;;;4999442;28;20034;-79
2022/04/22 11:53:51;;;;;;;3.00;1.95;;;21.10;99.90;;;;;;5025987;28;20399;-77
2022/04/22 11:56:22;;;;;;;2.63;1.52;;;21.30;99.90;;;;;;5026007;28;20037;-78
2022/04/22 11:58:53;;;;;;;8.52;2.72;;;21.50;99.90;;;;;;5026316;28;20048;-76
2022/04/22 12:07:01;;;;;;;4.38;1.80;;;21.30;99.90;;;;;;5026199;28;20036;-76
2022/04/22 12:09:27;;;;;;;3.38;1.98;;;21.00;99.90;;;;;;5024984;28;20072;-75
2022/04/22 12:11:56;;;;;;;6.40;1.77;;;20.90;99.90;;;;;;5021400;28;20022;-78
2022/04/22 12:14:24;;;;;;;5.57;2.35;;;20.90;99.90;;;;;;5020753;28;20049;-77
2022/04/22 12:17:00;;;;;;;4.07;1.67;;;20.80;99.90;;;;;;5021929;28;20026;-73
2022/04/22 12:19:29;;;;;;;3.63;1.65;;;21.20;99.90;;;;;;5007915;28;20041;-76
2022/04/22 12:21:55;;;;;;;4.22;2.10;;;21.30;99.90;;;;;;5005191;28;20030;-74
2022/04/22 12:24:22;;;;;;;6.65;2.30;;;21.60;99.90;;;;;;5024351;28;20030;-76
2022/04/22 12:26:50;;;;;;;6.38;3.05;;;21.90;99.90;;;;;;5019994;28;20061;-75
2022/04/22 12:29:22;;;;;;;4.38;2.40;;;22.00;99.90;;;;;;5026033;28;20018;-75
2022/04/22 12:31:51;;;;;;;4.72;2.08;;;22.00;99.90;;;;;;5026007;28;20033;-76
2022/04/22 12:34:36;;;;;;;2.90;1.80;;;21.90;99.90;;;;;;5026147;28;20053;-75
2022/04/22 12:37:04;;;;;;;3.53;1.70;;;22.10;99.90;;;;;;5025944;28;20027;-75
2022/04/22 12:39:39;;;;;;;4.30;2.35;;;22.50;99.90;;;;;;5026000;28;20060;-75
2022/04/22 12:42:06;;;;;;;3.45;1.95;;;22.60;99.80;;;;;;5025842;28;20121;-75
2022/04/22 12:44:32;;;;;;;7.20;2.08;;;22.30;99.50;;;;;;5025314;28;20113;-76
2022/04/22 12:52:47;;;;;;;7.25;2.15;;;20.90;99.90;;;;;;5025533;28;20029;-75
2022/04/22 12:55:17;;;;;;;3.15;2.20;;;20.80;99.90;;;;;;5008234;28;20022;-77
2022/04/22 12:57:43;;;;;;;2.97;1.80;;;20.50;99.90;;;;;;5007448;28;20190;-78
2022/04/22 13:00:18;;;;;;;4.18;1.88;;;20.40;99.90;;;;;;5007915;28;20037;-78
2022/04/22 13:02:44;;;;;;;5.07;1.90;;;20.30;99.90;;;;;;5010190;28;20030;-79
2022/04/22 13:05:21;;;;;;;5.15;2.00;;;20.60;99.90;;;;;;5011983;28;20478;-75
2022/04/22 13:07:51;;;;;;;7.90;2.47;;;20.50;99.90;;;;;;5025686;28;20037;-74
2022/04/22 13:10:20;;;;;;;3.22;1.77;;;20.90;99.90;;;;;;5025395;28;20030;-78
2022/04/22 13:12:51;;;;;;;4.15;1.83;;;21.40;99.90;;;;;;5005459;28;20046;-74
2022/04/22 13:15:19;;;;;;;6.55;2.00;;;21.90;99.90;;;;;;5005922;28;20094;-73
2022/04/22 13:17:47;;;;;;;5.40;2.00;;;22.00;99.50;;;;;;5005553;28;20092;-76
2022/04/22 13:20:19;;;;;;;2.95;1.63;;;22.10;99.90;;;;;;5005709;28;20041;-77
2022/04/22 13:22:45;;;;;;;3.80;1.17;;;22.50;99.90;;;;;;5006008;28;20030;-74
2022/04/22 13:25:21;;;;;;;9.57;1.98;;;22.90;98.70;;;;;;5005265;28;20086;-76
2022/04/22 13:27:47;;;;;;;2.40;1.45;;;22.90;97.70;;;;;;5007768;28;20108;-77
2022/04/22 13:30:15;;;;;;;3.15;1.52;;;22.90;98.90;;;;;;5025439;28;20029;-77
2022/04/22 13:32:40;;;;;;;1.73;1.08;;;22.60;98.90;;;;;;5007310;28;20022;-75
2022/04/22 13:35:07;;;;;;;2.60;1.30;;;22.50;98.00;;;;;;5007217;28;20026;-76
2022/04/22 13:37:33;;;;;;;2.65;1.50;;;22.40;98.80;;;;;;5025122;28;20034;-74
2022/04/22 13:39:59;;;;;;;2.58;1.33;;;22.70;98.60;;;;;;5024741;28;20068;-77
2022/04/22 13:42:25;;;;;;;3.25;1.75;;;23.10;98.10;;;;;;5007487;28;20026;-78
2022/04/22 13:53:04;;;;;;;5.35;1.13;;;23.40;96.30;;;;;;5005222;28;20109;-76
2022/04/22 13:55:30;;;;;;;1.33;0.88;;;23.60;94.60;;;;;;5005293;28;20049;-77
2022/04/22 13:57:57;;;;;;;2.85;1.00;;;23.60;96.20;;;;;;5005145;28;20030;-76
2022/04/22 14:00:23;;;;;;;1.70;1.02;;;23.70;95.90;;;;;;4987519;28;20038;-75
2022/04/22 14:02:48;;;;;;;2.53;1.02;;;23.90;95.50;;;;;;5005288;28;20038;-78